createdAt,value
2022-08-29T00:00:38.752Z,10.70
2022-08-29T00:03:08.461Z,8.68
2022-08-29T00:05:36.949Z,6.80
2022-08-29T00:08:05.259Z,7.43
2022-08-29T00:10:33.062Z,9.57
2022-08-29T00:13:00.523Z,12.73
2022-08-29T00:15:27.920Z,10.20
2022-08-29T00:17:55.222Z,8.80
2022-08-29T00:20:30.284Z,7.03
2022-08-29T00:23:02.348Z,6.45
2022-08-29T00:25:29.586Z,7.65
2022-08-29T00:27:56.720Z,8.32
2022-08-29T00:30:24.596Z,7.30
2022-08-29T00:32:52.704Z,9.88
2022-08-29T00:35:27.812Z,6.20
2022-08-29T00:37:55.244Z,12.93
2022-08-29T00:40:26.365Z,8.27
2022-08-29T00:42:53.680Z,5.15
2022-08-29T00:45:20.972Z,8.93
2022-08-29T00:47:52.244Z,7.88
2022-08-29T00:50:23.365Z,8.27
2022-08-29T00:52:50.683Z,9.27
2022-08-29T00:55:21.569Z,10.73
2022-08-29T00:57:49.826Z,12.60
2022-08-29T01:00:17.681Z,5.82
2022-08-29T01:02:45.866Z,7.30
2022-08-29T01:05:15.448Z,8.32
2022-08-29T01:07:45.082Z,15.65
2022-08-29T01:10:32.807Z,8.75
2022-08-29T01:13:00.138Z,7.38
2022-08-29T01:15:27.596Z,12.30
2022-08-29T01:17:55.505Z,15.52
2022-08-29T01:20:35.886Z,12.20
2022-08-29T01:23:09.103Z,11.20
2022-08-29T01:25:39.049Z,17.15
2022-08-29T01:28:10.594Z,7.57
2022-08-29T01:30:37.827Z,15.35
2022-08-29T01:33:05.041Z,10.45
2022-08-29T01:35:34.120Z,7.40
2022-08-29T01:38:01.435Z,5.70
2022-08-29T01:40:30.890Z,15.38
2022-08-29T01:42:58.618Z,9.80
2022-08-29T01:45:25.861Z,9.45
2022-08-29T01:47:53.033Z,12.25
2022-08-29T01:50:20.171Z,9.48
2022-08-29T01:52:48.048Z,9.73
2022-08-29T01:55:15.133Z,9.45
2022-08-29T01:57:42.331Z,7.43
2022-08-29T02:00:11.064Z,14.27
2022-08-29T02:02:40.359Z,7.80
2022-08-29T02:05:08.488Z,14.52
2022-08-29T02:07:35.716Z,15.73
2022-08-29T02:10:02.847Z,9.50
2022-08-29T02:12:31.701Z,5.72
2022-08-29T02:14:58.819Z,8.23
2022-08-29T02:17:25.950Z,7.80
2022-08-29T02:19:53.115Z,8.00
2022-08-29T02:22:20.356Z,9.38
2022-08-29T02:24:47.573Z,10.25
2022-08-29T02:27:14.701Z,10.40
2022-08-29T02:29:41.968Z,6.78
2022-08-29T02:32:12.157Z,6.95
2022-08-29T02:34:39.670Z,10.10
2022-08-29T02:37:11.085Z,9.10
2022-08-29T02:39:38.284Z,9.68
2022-08-29T02:42:05.644Z,20.02
2022-08-29T02:44:32.922Z,11.68
2022-08-29T02:47:00.151Z,4.82
2022-08-29T02:49:27.380Z,10.85
2022-08-29T02:51:54.549Z,24.92
2022-08-29T02:54:21.701Z,20.17
2022-08-29T02:56:48.879Z,29.20
2022-08-29T02:59:16.033Z,75.93
2022-08-29T03:01:43.160Z,40.97
2022-08-29T03:04:10.286Z,25.20
2022-08-29T03:06:37.390Z,17.33
2022-08-29T03:09:04.824Z,14.68
2022-08-29T03:11:31.913Z,20.25
2022-08-29T03:13:58.991Z,15.10
2022-08-29T03:16:26.806Z,15.85
2022-08-29T03:18:54.647Z,11.90
2022-08-29T03:21:23.115Z,18.27
2022-08-29T03:23:50.880Z,9.77
2022-08-29T03:26:18.582Z,8.95
2022-08-29T03:28:46.475Z,11.70
2022-08-29T03:31:13.714Z,12.43
2022-08-29T03:33:41.866Z,10.35
2022-08-29T03:36:14.584Z,12.23
2022-08-29T03:38:42.578Z,11.63
2022-08-29T03:41:10.029Z,11.95
2022-08-29T03:43:37.678Z,10.13
2022-08-29T03:46:05.128Z,9.07
2022-08-29T03:48:33.883Z,13.32
2022-08-29T03:51:01.142Z,9.13
2022-08-29T03:53:28.330Z,10.13
2022-08-29T03:55:58.153Z,14.32
2022-08-29T03:58:25.448Z,13.18
2022-08-29T04:00:52.825Z,11.63
2022-08-29T04:03:20.338Z,11.73
2022-08-29T04:05:57.977Z,18.67
2022-08-29T04:08:25.093Z,18.05
2022-08-29T04:10:52.315Z,16.48
2022-08-29T04:13:19.509Z,16.45
2022-08-29T04:15:46.681Z,15.00
2022-08-29T04:18:15.603Z,11.93
2022-08-29T04:20:48.594Z,7.72
2022-08-29T04:23:15.967Z,11.25
2022-08-29T04:25:44.049Z,10.77
2022-08-29T04:28:12.678Z,8.98
2022-08-29T04:30:40.315Z,9.00
2022-08-29T04:33:07.448Z,11.75
2022-08-29T04:35:37.249Z,11.63
2022-08-29T04:38:04.339Z,9.45
2022-08-29T04:40:31.593Z,7.90
2022-08-29T04:42:59.575Z,9.63
2022-08-29T04:45:27.230Z,14.30
2022-08-29T04:47:54.341Z,12.88
2022-08-29T04:50:22.606Z,10.23
2022-08-29T04:52:50.488Z,11.60
2022-08-29T04:55:22.729Z,17.98
2022-08-29T04:57:53.583Z,7.53
2022-08-29T05:00:23.299Z,10.60
2022-08-29T05:02:50.773Z,9.52
2022-08-29T05:05:18.335Z,6.75
2022-08-29T05:07:48.397Z,12.68
2022-08-29T05:10:19.636Z,14.20
2022-08-29T05:12:47.169Z,25.90
2022-08-29T05:15:15.645Z,25.73
2022-08-29T05:17:42.798Z,23.20
2022-08-29T05:20:10.189Z,19.75
2022-08-29T05:22:38.997Z,17.55
2022-08-29T05:25:06.377Z,18.50
2022-08-29T05:27:33.494Z,11.43
2022-08-29T05:30:01.791Z,9.95
2022-08-29T05:32:28.949Z,5.38
2022-08-29T05:34:56.286Z,6.40
2022-08-29T05:37:23.875Z,8.68
2022-08-29T05:39:51.213Z,6.32
2022-08-29T05:42:19.913Z,5.70
2022-08-29T05:44:47.457Z,6.32
2022-08-29T05:47:15.643Z,7.53
2022-08-29T05:49:43.653Z,4.85
2022-08-29T05:52:11.090Z,5.43
2022-08-29T05:54:39.247Z,8.38
2022-08-29T05:57:06.866Z,4.60
2022-08-29T05:59:35.343Z,7.40
2022-08-29T06:02:02.487Z,3.72
2022-08-29T06:04:29.659Z,5.25
2022-08-29T06:06:56.800Z,6.30
2022-08-29T06:09:23.898Z,7.75
2022-08-29T06:11:53.230Z,11.30
2022-08-29T06:14:20.703Z,11.60
2022-08-29T06:16:47.811Z,11.80
2022-08-29T06:19:14.995Z,5.40
2022-08-29T06:21:42.427Z,7.68
2022-08-29T06:24:09.571Z,7.25
2022-08-29T06:26:36.713Z,5.72
2022-08-29T06:29:05.388Z,11.80
2022-08-29T06:31:32.841Z,6.35
2022-08-29T06:34:05.376Z,13.45
2022-08-29T06:36:33.083Z,12.45
2022-08-29T06:39:07.086Z,5.43
2022-08-29T06:41:34.860Z,5.78
2022-08-29T06:44:02.606Z,7.28
2022-08-29T06:46:34.359Z,6.10
2022-08-29T06:49:02.415Z,6.80
2022-08-29T06:51:32.996Z,9.35
2022-08-29T06:54:00.938Z,6.80
2022-08-29T06:56:28.277Z,4.30
2022-08-29T06:58:56.558Z,6.57
2022-08-29T07:01:24.204Z,10.65
2022-08-29T07:03:53.819Z,10.75
2022-08-29T07:06:21.122Z,15.20
2022-08-29T07:08:55.910Z,21.67
2022-08-29T07:11:24.086Z,29.50
2022-08-29T07:13:51.226Z,16.50
2022-08-29T07:16:18.990Z,22.75
2022-08-29T07:18:46.945Z,20.75
2022-08-29T07:21:19.709Z,27.58
2022-08-29T07:23:47.972Z,18.65
2022-08-29T07:26:20.056Z,29.80
2022-08-29T07:28:47.724Z,22.88
2022-08-29T07:31:14.942Z,22.58
2022-08-29T07:33:42.151Z,16.60
2022-08-29T07:36:09.810Z,22.92
2022-08-29T07:38:37.563Z,19.08
2022-08-29T07:41:06.110Z,19.23
2022-08-29T07:43:33.502Z,21.23
2022-08-29T07:46:07.257Z,14.93
2022-08-29T07:48:34.577Z,21.70
2022-08-29T07:51:01.853Z,11.60
2022-08-29T07:53:31.797Z,11.02
2022-08-29T07:55:58.912Z,8.15
2022-08-29T07:58:26.019Z,12.77
2022-08-29T08:00:53.174Z,8.05
2022-08-29T08:03:21.701Z,8.52
2022-08-29T08:05:48.872Z,9.48
2022-08-29T08:08:18.746Z,7.88
2022-08-29T08:10:51.383Z,7.10
2022-08-29T08:13:19.240Z,5.80
2022-08-29T08:15:48.666Z,6.68
2022-08-29T08:18:16.758Z,8.45
2022-08-29T08:20:48.369Z,6.95
2022-08-29T08:23:16.470Z,7.72
2022-08-29T08:25:44.490Z,7.60
2022-08-29T08:28:13.850Z,6.88
2022-08-29T08:30:41.916Z,7.20
2022-08-29T08:33:09.989Z,5.00
2022-08-29T08:35:41.830Z,4.90
2022-08-29T08:38:10.029Z,6.35
2022-08-29T08:40:43.235Z,7.25
2022-08-29T08:43:10.619Z,5.05
2022-08-29T08:45:39.028Z,7.10
2022-08-29T08:48:09.319Z,8.02
2022-08-29T08:50:45.541Z,5.95
2022-08-29T08:53:33.090Z,3.95
2022-08-29T08:56:02.266Z,4.05
2022-08-29T08:58:33.687Z,39.10
2022-08-29T09:01:11.112Z,4.55
2022-08-29T09:03:38.599Z,26.70
2022-08-29T09:06:31.610Z,45.50
2022-08-29T09:09:12.094Z,22.37
2022-08-29T09:11:48.973Z,20.60
2022-08-29T09:14:33.673Z,33.65
2022-08-29T09:17:01.209Z,8.77
2022-08-29T09:19:28.342Z,7.85
2022-08-29T09:21:59.848Z,6.18
2022-08-29T09:24:33.409Z,24.17
2022-08-29T09:27:00.545Z,7.90
2022-08-29T09:29:29.014Z,21.33
2022-08-29T09:32:05.916Z,4.13
2022-08-29T09:34:50.843Z,7.10
2022-08-29T09:37:24.571Z,15.43
2022-08-29T09:40:16.755Z,5.75
2022-08-29T09:42:51.790Z,17.08
2022-08-29T09:45:25.595Z,11.10
2022-08-29T09:48:10.099Z,5.45
2022-08-29T09:50:37.551Z,3.50
2022-08-29T09:53:08.187Z,5.70
2022-08-29T09:55:51.394Z,5.68
2022-08-29T09:58:19.195Z,5.57
2022-08-29T10:01:01.307Z,8.07
2022-08-29T10:03:31.103Z,13.55
2022-08-29T10:06:16.982Z,5.22
2022-08-29T10:08:55.368Z,3.60
2022-08-29T10:11:25.921Z,4.80
2022-08-29T10:14:12.629Z,3.95
2022-08-29T10:16:46.674Z,6.25
2022-08-29T10:19:16.415Z,5.65
2022-08-29T10:21:52.625Z,4.57
2022-08-29T10:24:20.133Z,4.22
2022-08-29T10:27:02.826Z,4.00
2022-08-29T10:29:48.857Z,4.27
2022-08-29T10:32:32.814Z,9.95
2022-08-29T10:34:59.928Z,5.53
2022-08-29T10:37:39.005Z,7.18
2022-08-29T10:40:09.629Z,6.35
2022-08-29T10:42:40.334Z,3.70
2022-08-29T10:45:23.147Z,4.10
2022-08-29T10:47:59.342Z,7.00
2022-08-29T10:50:45.704Z,7.10
2022-08-29T10:53:14.668Z,6.82
2022-08-29T10:55:45.856Z,5.85
2022-08-29T10:58:31.657Z,4.47
2022-08-29T11:01:08.436Z,7.25
2022-08-29T11:03:50.803Z,6.72
2022-08-29T11:06:22.641Z,4.75
2022-08-29T11:08:50.656Z,5.30
2022-08-29T11:11:19.228Z,4.15
2022-08-29T11:13:51.918Z,15.80
2022-08-29T11:16:40.244Z,5.00
2022-08-29T11:19:22.407Z,5.43
2022-08-29T11:22:10.172Z,5.53
2022-08-29T11:24:38.913Z,8.70
2022-08-29T11:27:12.233Z,5.30
2022-08-29T11:29:58.221Z,7.85
2022-08-29T11:32:26.335Z,6.88
2022-08-29T11:35:18.102Z,5.20
2022-08-29T11:38:04.133Z,6.97
2022-08-29T11:43:43.942Z,7.30
2022-08-29T11:46:14.140Z,5.63
2022-08-29T11:48:43.296Z,5.70
2022-08-29T11:51:29.289Z,3.63
2022-08-29T11:53:57.085Z,5.15
2022-08-29T11:56:28.284Z,12.00
2022-08-29T11:58:57.507Z,3.72
2022-08-29T12:01:37.869Z,6.32
2022-08-29T12:04:09.445Z,6.47
2022-08-29T12:06:43.302Z,5.05
2022-08-29T12:09:14.250Z,4.25
2022-08-29T12:12:00.316Z,3.08
2022-08-29T12:14:41.434Z,9.60
2022-08-29T12:17:17.767Z,7.82
2022-08-29T12:19:53.243Z,6.07
2022-08-29T12:22:39.127Z,5.72
2022-08-29T12:25:24.980Z,9.65
2022-08-29T12:27:58.173Z,8.00
2022-08-29T12:30:25.310Z,6.13
2022-08-29T12:33:04.392Z,5.07
2022-08-29T12:35:38.460Z,11.02
2022-08-29T12:38:28.584Z,4.72
2022-08-29T12:41:05.773Z,4.22
2022-08-29T12:43:39.783Z,5.63
2022-08-29T12:46:10.954Z,10.18
2022-08-29T12:48:57.403Z,3.78
2022-08-29T12:51:41.960Z,3.88
2022-08-29T12:56:37.912Z,3.50
2022-08-29T12:59:05.793Z,5.05
2022-08-29T13:01:37.734Z,5.15
2022-08-29T13:04:11.084Z,5.00
2022-08-29T13:06:39.168Z,5.30
2022-08-29T13:09:06.431Z,3.42
2022-08-29T13:11:34.049Z,4.15
2022-08-29T13:14:21.330Z,4.60
2022-08-29T13:16:50.508Z,6.38
2022-08-29T13:19:22.252Z,6.90
2022-08-29T13:21:51.485Z,5.13
2022-08-29T13:24:20.221Z,4.47
2022-08-29T13:27:03.137Z,7.10
2022-08-29T13:29:36.475Z,5.10
2022-08-29T13:32:09.708Z,4.90
2022-08-29T13:34:36.914Z,4.30
2022-08-29T13:37:10.541Z,8.90
2022-08-29T13:39:47.637Z,4.53
2022-08-29T13:42:17.802Z,5.40
2022-08-29T13:44:52.005Z,3.80
2022-08-29T13:47:20.983Z,4.10
2022-08-29T13:49:48.617Z,4.55
2022-08-29T13:52:19.051Z,5.18
2022-08-29T13:54:46.221Z,4.35
2022-08-29T13:57:15.743Z,5.25
2022-08-29T13:59:42.867Z,3.90
2022-08-29T14:02:11.045Z,5.53
2022-08-29T14:04:40.687Z,5.53
2022-08-29T14:07:12.999Z,6.00
2022-08-29T14:09:41.743Z,6.30
2022-08-29T14:12:09.985Z,7.82
2022-08-29T14:14:37.137Z,4.55
2022-08-29T14:17:04.361Z,8.18
2022-08-29T14:19:32.012Z,3.75
2022-08-29T14:22:00.455Z,6.75
2022-08-29T14:24:31.699Z,4.75
2022-08-29T14:27:01.159Z,5.35
2022-08-29T14:29:30.658Z,6.10
2022-08-29T14:31:58.238Z,5.50
2022-08-29T14:34:25.537Z,6.25
2022-08-29T14:36:57.923Z,5.85
2022-08-29T14:39:26.368Z,4.45
2022-08-29T14:41:54.206Z,3.30
2022-08-29T14:44:22.220Z,11.13
2022-08-29T14:46:49.620Z,5.85
2022-08-29T14:49:16.851Z,3.50
2022-08-29T14:51:47.311Z,3.50
2022-08-29T14:54:14.953Z,4.80
2022-08-29T14:56:50.619Z,3.72
2022-08-29T14:59:19.144Z,4.07
2022-08-29T15:01:52.677Z,4.75
2022-08-29T15:04:21.715Z,5.90
2022-08-29T15:07:02.346Z,5.43
2022-08-29T15:09:29.465Z,4.63
2022-08-29T15:11:56.609Z,3.10
2022-08-29T15:14:23.743Z,8.75
2022-08-29T15:16:50.895Z,2.78
2022-08-29T15:19:53.655Z,6.05
2022-08-29T15:22:05.586Z,4.00
2022-08-29T15:24:33.256Z,5.65
2022-08-29T15:27:00.556Z,3.88
2022-08-29T15:29:28.140Z,4.30
2022-08-29T15:31:57.353Z,4.00
2022-08-29T15:34:30.747Z,9.45
2022-08-29T15:36:58.293Z,4.00
2022-08-29T15:39:27.386Z,5.55
2022-08-29T15:41:55.481Z,10.35
2022-08-29T15:44:25.400Z,4.00
2022-08-29T15:46:52.649Z,9.75
2022-08-29T15:49:23.567Z,5.15
2022-08-29T15:51:53.132Z,7.22
2022-08-29T15:54:20.804Z,6.13
2022-08-29T15:56:48.056Z,5.30
2022-08-29T15:59:15.587Z,3.72
2022-08-29T16:01:43.935Z,3.58
2022-08-29T16:04:11.765Z,6.70
2022-08-29T16:06:39.221Z,3.47
2022-08-29T16:09:15.135Z,2.65
2022-08-29T16:11:43.460Z,5.68
2022-08-29T16:14:46.598Z,5.53
2022-08-29T16:16:57.881Z,6.40
2022-08-29T16:19:25.200Z,10.02
2022-08-29T16:21:52.588Z,5.90
2022-08-29T16:24:21.878Z,3.20
2022-08-29T16:26:49.033Z,6.43
2022-08-29T16:29:26.235Z,4.05
2022-08-29T16:31:54.102Z,5.22
2022-08-29T16:34:23.212Z,4.88
2022-08-29T16:36:50.437Z,6.10
2022-08-29T16:39:17.627Z,5.72
2022-08-29T16:41:45.636Z,6.93
2022-08-29T16:44:12.963Z,4.47
2022-08-29T16:46:41.409Z,5.32
2022-08-29T16:49:08.511Z,5.47
2022-08-29T16:51:35.698Z,4.82
2022-08-29T16:54:02.885Z,4.43
2022-08-29T16:56:30.635Z,3.47
2022-08-29T16:59:01.506Z,6.82
2022-08-29T17:01:33.616Z,3.95
2022-08-29T17:04:01.551Z,4.80
2022-08-29T17:06:31.930Z,4.00
2022-08-29T17:08:59.060Z,5.35
2022-08-29T17:11:26.334Z,4.70
2022-08-29T17:13:53.504Z,7.57
2022-08-29T17:16:21.133Z,2.97
2022-08-29T17:18:48.343Z,5.65
2022-08-29T17:21:15.681Z,3.58
2022-08-29T17:23:43.246Z,5.05
2022-08-29T17:26:11.787Z,5.00
2022-08-29T17:28:39.970Z,3.35
2022-08-29T17:31:07.934Z,4.55
2022-08-29T17:33:35.915Z,5.45
2022-08-29T17:36:04.589Z,3.35
2022-08-29T17:38:32.134Z,4.38
2022-08-29T17:41:00.581Z,8.18
2022-08-29T17:43:29.161Z,5.45
2022-08-29T17:45:57.576Z,6.82
2022-08-29T17:48:25.203Z,5.40
2022-08-29T17:50:52.428Z,16.80
2022-08-29T17:53:19.883Z,13.25
2022-08-29T17:55:47.215Z,14.45
2022-08-29T17:58:15.162Z,8.88
2022-08-29T18:00:42.518Z,7.32
2022-08-29T18:03:09.775Z,7.03
2022-08-29T18:05:37.118Z,8.98
2022-08-29T18:08:04.563Z,3.00
2022-08-29T18:10:32.399Z,5.43
2022-08-29T18:12:59.912Z,4.68
2022-08-29T18:15:27.235Z,8.00
2022-08-29T18:17:54.879Z,6.97
2022-08-29T18:20:23.306Z,8.15
2022-08-29T18:22:50.491Z,8.48
2022-08-29T18:25:22.315Z,6.90
2022-08-29T18:27:50.361Z,8.15
2022-08-29T18:30:17.607Z,8.05
2022-08-29T18:32:44.786Z,6.45
2022-08-29T18:35:12.225Z,10.05
2022-08-29T18:37:39.704Z,16.55
2022-08-29T18:40:08.474Z,21.63
2022-08-29T18:42:40.777Z,7.43
2022-08-29T18:45:09.511Z,7.05
2022-08-29T18:47:36.704Z,11.55
2022-08-29T18:50:25.057Z,6.10
2022-08-29T18:52:52.985Z,6.65
2022-08-29T18:55:21.269Z,4.53
2022-08-29T18:57:48.412Z,4.40
2022-08-29T19:00:17.277Z,6.78
2022-08-29T19:02:44.691Z,7.30
2022-08-29T19:05:11.889Z,5.78
2022-08-29T19:07:39.196Z,5.28
2022-08-29T19:10:06.905Z,5.47
2022-08-29T19:12:34.311Z,6.45
2022-08-29T19:15:02.314Z,11.00
2022-08-29T19:17:29.535Z,8.18
2022-08-29T19:20:15.187Z,11.68
2022-08-29T19:22:42.526Z,9.88
2022-08-29T19:25:10.039Z,6.93
2022-08-29T19:27:45.126Z,3.90
2022-08-29T19:30:13.742Z,6.82
2022-08-29T19:32:40.933Z,4.68
2022-08-29T19:35:11.036Z,5.63
2022-08-29T19:37:38.484Z,6.55
2022-08-29T19:40:06.824Z,8.00
2022-08-29T19:42:34.181Z,8.40
2022-08-29T19:45:02.641Z,3.70
2022-08-29T19:47:31.093Z,4.75
2022-08-29T19:49:58.239Z,4.45
2022-08-29T19:52:25.656Z,4.95
2022-08-29T19:54:53.942Z,3.72
2022-08-29T19:57:22.586Z,13.90
2022-08-29T19:59:50.181Z,6.85
2022-08-29T20:02:17.670Z,7.25
2022-08-29T20:04:44.891Z,6.68
2022-08-29T20:07:13.578Z,6.30
2022-08-29T20:09:41.671Z,6.10
2022-08-29T20:12:08.961Z,5.88
2022-08-29T20:14:37.439Z,7.30
2022-08-29T20:17:09.312Z,4.28
2022-08-29T20:19:37.120Z,7.22
2022-08-29T20:22:07.168Z,10.35
2022-08-29T20:24:34.609Z,6.63
2022-08-29T20:27:03.056Z,5.18
2022-08-29T20:29:30.255Z,6.55
2022-08-29T20:31:59.192Z,6.28
2022-08-29T20:34:29.382Z,6.97
2022-08-29T20:37:09.163Z,9.80
2022-08-29T20:39:37.747Z,4.75
2022-08-29T20:42:05.442Z,6.47
2022-08-29T20:44:37.582Z,13.73
2022-08-29T20:47:06.013Z,9.40
2022-08-29T20:49:33.540Z,5.05
2022-08-29T20:52:01.352Z,6.20
2022-08-29T20:54:28.744Z,6.68
2022-08-29T20:56:56.356Z,7.95
2022-08-29T20:59:26.668Z,9.25
2022-08-29T21:01:55.494Z,5.15
2022-08-29T21:04:41.532Z,7.80
2022-08-29T21:07:09.492Z,8.48
2022-08-29T21:09:37.633Z,4.45
2022-08-29T21:12:04.881Z,4.47
2022-08-29T21:14:32.017Z,5.05
2022-08-29T21:16:59.303Z,7.10
2022-08-29T21:19:29.917Z,7.43
2022-08-29T21:21:58.762Z,6.13
2022-08-29T21:24:26.677Z,4.65
2022-08-29T21:26:54.119Z,12.02
2022-08-29T21:29:21.368Z,4.47
2022-08-29T21:31:49.089Z,7.93
2022-08-29T21:34:16.713Z,6.10
2022-08-29T21:36:43.920Z,9.45
2022-08-29T21:39:11.971Z,5.82
2022-08-29T21:41:43.519Z,8.93
2022-08-29T21:44:11.835Z,4.05
2022-08-29T21:46:43.975Z,6.60
2022-08-29T21:49:13.373Z,4.38
2022-08-29T21:51:40.642Z,8.95
2022-08-29T21:54:12.771Z,5.05
2022-08-29T21:56:40.739Z,5.70
2022-08-29T21:59:07.944Z,4.22
2022-08-29T22:01:38.866Z,4.35
2022-08-29T22:04:07.600Z,5.63
2022-08-29T22:06:41.059Z,6.53
2022-08-29T22:11:37.265Z,5.63
2022-08-29T22:14:05.366Z,4.10
2022-08-29T22:16:32.688Z,5.60
2022-08-29T22:19:05.972Z,6.60
2022-08-29T22:21:34.607Z,4.70
2022-08-29T22:24:02.540Z,6.22
2022-08-29T22:26:29.725Z,6.63
2022-08-29T22:28:56.909Z,5.50
2022-08-29T22:31:26.325Z,5.45
2022-08-29T22:33:53.522Z,4.82
2022-08-29T22:36:20.743Z,6.55
2022-08-29T22:38:53.607Z,7.53
2022-08-29T22:41:23.870Z,8.48
2022-08-29T22:44:08.767Z,9.50
2022-08-29T22:46:41.949Z,8.73
2022-08-29T22:49:09.363Z,6.57
2022-08-29T22:51:36.510Z,5.50
2022-08-29T22:54:22.287Z,8.55
2022-08-29T22:56:49.371Z,9.98
2022-08-29T22:59:17.343Z,5.72
2022-08-29T23:01:45.147Z,9.82
2022-08-29T23:04:12.799Z,4.63
2022-08-29T23:06:40.281Z,5.15
2022-08-29T23:09:07.470Z,6.60
2022-08-29T23:11:35.243Z,5.30
2022-08-29T23:14:02.718Z,7.78
2022-08-29T23:16:32.975Z,10.30
2022-08-29T23:19:00.932Z,6.72
2022-08-29T23:21:28.688Z,7.68
2022-08-29T23:23:56.328Z,6.72
2022-08-29T23:26:23.486Z,10.55
2022-08-29T23:28:51.036Z,6.28
2022-08-29T23:31:19.613Z,8.82
2022-08-29T23:33:47.158Z,8.32
2022-08-29T23:36:14.432Z,7.70
2022-08-29T23:38:43.282Z,6.95
2022-08-29T23:41:11.244Z,9.23
2022-08-29T23:43:38.397Z,7.07
2022-08-29T23:46:06.157Z,9.13
2022-08-29T23:48:33.815Z,7.72
2022-08-29T23:51:05.370Z,8.57
2022-08-29T23:53:32.466Z,7.97
2022-08-29T23:55:59.843Z,8.50
2022-08-29T23:58:27.172Z,5.82
